sensor_id;sensor_type;location;lat;lon;timestamp;P1;durP1;ratioP1;P2;durP2;ratioP2
13805;SDS011;6974;53.606;9.872;2023-09-18T00:01:06;6.93;;;6.23;;
13805;SDS011;6974;53.606;9.872;2023-09-18T00:03:35;7.77;;;7.07;;
13805;SDS011;6974;53.606;9.872;2023-09-18T00:06:02;7.07;;;6.47;;
13805;SDS011;6974;53.606;9.872;2023-09-18T00:08:31;7.03;;;6.27;;
13805;SDS011;6974;53.606;9.872;2023-09-18T00:10:58;9.53;;;7.27;;
13805;SDS011;6974;53.606;9.872;2023-09-18T00:13:27;6.63;;;6.03;;
13805;SDS011;6974;53.606;9.872;2023-09-18T00:15:54;6.93;;;6.33;;
13805;SDS011;6974;53.606;9.872;2023-09-18T00:18:24;7.50;;;6.83;;
13805;SDS011;6974;53.606;9.872;2023-09-18T00:20:51;7.23;;;6.63;;
13805;SDS011;6974;53.606;9.872;2023-09-18T00:23:19;6.80;;;6.30;;
13805;SDS011;6974;53.606;9.872;2023-09-18T00:25:46;8.20;;;6.30;;
13805;SDS011;6974;53.606;9.872;2023-09-18T00:28:13;7.03;;;6.43;;
13805;SDS011;6974;53.606;9.872;2023-09-18T00:30:48;7.30;;;6.60;;
13805;SDS011;6974;53.606;9.872;2023-09-18T00:33:16;7.17;;;6.57;;
13805;SDS011;6974;53.606;9.872;2023-09-18T00:35:45;7.23;;;6.53;;
13805;SDS011;6974;53.606;9.872;2023-09-18T00:38:15;7.10;;;6.50;;
13805;SDS011;6974;53.606;9.872;2023-09-18T00:40:42;7.20;;;6.60;;
13805;SDS011;6974;53.606;9.872;2023-09-18T00:43:09;7.03;;;6.50;;
13805;SDS011;6974;53.606;9.872;2023-09-18T00:45:40;6.70;;;6.20;;
13805;SDS011;6974;53.606;9.872;2023-09-18T00:48:10;6.77;;;6.17;;
13805;SDS011;6974;53.606;9.872;2023-09-18T00:50:38;6.70;;;6.10;;
13805;SDS011;6974;53.606;9.872;2023-09-18T00:53:06;6.30;;;5.80;;
13805;SDS011;6974;53.606;9.872;2023-09-18T00:55:34;6.93;;;6.23;;
13805;SDS011;6974;53.606;9.872;2023-09-18T00:58:04;6.43;;;5.83;;
13805;SDS011;6974;53.606;9.872;2023-09-18T01:00:33;7.13;;;6.53;;
13805;SDS011;6974;53.606;9.872;2023-09-18T01:03:01;7.10;;;6.47;;
13805;SDS011;6974;53.606;9.872;2023-09-18T01:05:32;6.53;;;5.97;;
13805;SDS011;6974;53.606;9.872;2023-09-18T01:07:59;7.03;;;6.43;;
13805;SDS011;6974;53.606;9.872;2023-09-18T01:10:28;7.07;;;6.47;;
13805;SDS011;6974;53.606;9.872;2023-09-18T01:13:00;7.33;;;6.73;;
13805;SDS011;6974;53.606;9.872;2023-09-18T01:15:32;7.47;;;6.77;;
13805;SDS011;6974;53.606;9.872;2023-09-18T01:18:06;7.07;;;6.40;;
13805;SDS011;6974;53.606;9.872;2023-09-18T01:20:36;7.97;;;7.20;;
13805;SDS011;6974;53.606;9.872;2023-09-18T01:23:05;7.20;;;6.70;;
13805;SDS011;6974;53.606;9.872;2023-09-18T01:25:32;7.00;;;6.30;;
13805;SDS011;6974;53.606;9.872;2023-09-18T01:27:59;8.00;;;7.30;;
13805;SDS011;6974;53.606;9.872;2023-09-18T01:30:26;7.13;;;6.60;;
13805;SDS011;6974;53.606;9.872;2023-09-18T01:32:54;7.47;;;6.70;;
13805;SDS011;6974;53.606;9.872;2023-09-18T01:35:22;7.10;;;6.50;;
13805;SDS011;6974;53.606;9.872;2023-09-18T01:37:54;7.00;;;6.40;;
13805;SDS011;6974;53.606;9.872;2023-09-18T01:40:24;7.40;;;6.70;;
13805;SDS011;6974;53.606;9.872;2023-09-18T01:42:51;7.30;;;6.70;;
13805;SDS011;6974;53.606;9.872;2023-09-18T01:45:18;7.73;;;7.10;;
13805;SDS011;6974;53.606;9.872;2023-09-18T01:47:46;7.13;;;6.63;;
13805;SDS011;6974;53.606;9.872;2023-09-18T01:50:13;7.40;;;6.80;;
13805;SDS011;6974;53.606;9.872;2023-09-18T01:52:43;7.50;;;6.80;;
13805;SDS011;6974;53.606;9.872;2023-09-18T01:55:11;7.63;;;7.03;;
13805;SDS011;6974;53.606;9.872;2023-09-18T01:57:40;6.97;;;6.37;;
13805;SDS011;6974;53.606;9.872;2023-09-18T02:00:08;7.07;;;6.47;;
13805;SDS011;6974;53.606;9.872;2023-09-18T02:02:35;6.77;;;6.27;;
13805;SDS011;6974;53.606;9.872;2023-09-18T02:05:03;7.33;;;6.63;;
13805;SDS011;6974;53.606;9.872;2023-09-18T02:07:30;7.40;;;6.80;;
13805;SDS011;6974;53.606;9.872;2023-09-18T02:09:57;7.47;;;6.77;;
13805;SDS011;6974;53.606;9.872;2023-09-18T02:12:24;7.57;;;6.87;;
13805;SDS011;6974;53.606;9.872;2023-09-18T02:14:54;7.17;;;6.47;;
13805;SDS011;6974;53.606;9.872;2023-09-18T02:17:22;7.67;;;6.97;;
13805;SDS011;6974;53.606;9.872;2023-09-18T02:19:49;7.33;;;6.63;;
13805;SDS011;6974;53.606;9.872;2023-09-18T02:22:16;7.07;;;6.47;;
13805;SDS011;6974;53.606;9.872;2023-09-18T02:24:44;8.20;;;6.60;;
13805;SDS011;6974;53.606;9.872;2023-09-18T02:27:11;7.93;;;6.73;;
13805;SDS011;6974;53.606;9.872;2023-09-18T02:29:38;6.93;;;6.43;;
13805;SDS011;6974;53.606;9.872;2023-09-18T02:32:06;7.13;;;6.53;;
13805;SDS011;6974;53.606;9.872;2023-09-18T02:34:35;7.60;;;6.83;;
13805;SDS011;6974;53.606;9.872;2023-09-18T02:37:02;6.70;;;6.20;;
13805;SDS011;6974;53.606;9.872;2023-09-18T02:39:29;7.43;;;6.73;;
13805;SDS011;6974;53.606;9.872;2023-09-18T02:41:56;7.90;;;7.20;;
13805;SDS011;6974;53.606;9.872;2023-09-18T02:44:23;7.57;;;6.87;;
13805;SDS011;6974;53.606;9.872;2023-09-18T02:46:49;7.20;;;6.60;;
13805;SDS011;6974;53.606;9.872;2023-09-18T02:49:19;7.43;;;6.80;;
13805;SDS011;6974;53.606;9.872;2023-09-18T02:51:46;8.00;;;7.03;;
13805;SDS011;6974;53.606;9.872;2023-09-18T02:54:16;7.40;;;6.80;;
13805;SDS011;6974;53.606;9.872;2023-09-18T02:56:43;7.83;;;7.20;;
13805;SDS011;6974;53.606;9.872;2023-09-18T02:59:10;7.43;;;6.83;;
13805;SDS011;6974;53.606;9.872;2023-09-18T03:01:37;7.70;;;7.03;;
13805;SDS011;6974;53.606;9.872;2023-09-18T03:04:04;8.80;;;8.10;;
13805;SDS011;6974;53.606;9.872;2023-09-18T03:06:33;7.63;;;7.03;;
13805;SDS011;6974;53.606;9.872;2023-09-18T03:09:04;7.20;;;6.60;;
13805;SDS011;6974;53.606;9.872;2023-09-18T03:11:32;7.87;;;7.17;;
13805;SDS011;6974;53.606;9.872;2023-09-18T03:13:59;7.13;;;6.60;;
13805;SDS011;6974;53.606;9.872;2023-09-18T03:16:25;7.47;;;6.70;;
13805;SDS011;6974;53.606;9.872;2023-09-18T03:18:52;7.43;;;6.73;;
13805;SDS011;6974;53.606;9.872;2023-09-18T03:21:20;8.20;;;7.50;;
13805;SDS011;6974;53.606;9.872;2023-09-18T03:23:48;8.40;;;7.53;;
13805;SDS011;6974;53.606;9.872;2023-09-18T03:26:15;7.93;;;7.33;;
13805;SDS011;6974;53.606;9.872;2023-09-18T03:28:43;7.77;;;7.13;;
13805;SDS011;6974;53.606;9.872;2023-09-18T03:31:10;7.77;;;7.07;;
13805;SDS011;6974;53.606;9.872;2023-09-18T03:33:37;9.30;;;7.07;;
13805;SDS011;6974;53.606;9.872;2023-09-18T03:36:04;8.80;;;8.00;;
13805;SDS011;6974;53.606;9.872;2023-09-18T03:38:33;8.77;;;7.97;;
13805;SDS011;6974;53.606;9.872;2023-09-18T03:41:02;7.90;;;7.30;;
13805;SDS011;6974;53.606;9.872;2023-09-18T03:43:29;8.97;;;8.00;;
13805;SDS011;6974;53.606;9.872;2023-09-18T03:46:02;8.00;;;7.30;;
13805;SDS011;6974;53.606;9.872;2023-09-18T03:48:30;8.53;;;7.63;;
13805;SDS011;6974;53.606;9.872;2023-09-18T03:51:02;8.07;;;7.37;;
13805;SDS011;6974;53.606;9.872;2023-09-18T03:53:30;7.30;;;6.70;;
13805;SDS011;6974;53.606;9.872;2023-09-18T03:55:58;8.00;;;7.20;;
13805;SDS011;6974;53.606;9.872;2023-09-18T03:58:27;8.70;;;8.00;;
13805;SDS011;6974;53.606;9.872;2023-09-18T04:00:54;8.23;;;7.53;;
13805;SDS011;6974;53.606;9.872;2023-09-18T04:03:22;8.50;;;7.80;;
13805;SDS011;6974;53.606;9.872;2023-09-18T04:05:50;8.27;;;7.47;;
13805;SDS011;6974;53.606;9.872;2023-09-18T04:08:17;8.23;;;7.43;;
13805;SDS011;6974;53.606;9.872;2023-09-18T04:10:45;8.47;;;7.77;;
13805;SDS011;6974;53.606;9.872;2023-09-18T04:13:14;8.10;;;7.50;;
13805;SDS011;6974;53.606;9.872;2023-09-18T04:15:42;7.80;;;7.07;;
13805;SDS011;6974;53.606;9.872;2023-09-18T04:18:11;8.37;;;7.57;;
13805;SDS011;6974;53.606;9.872;2023-09-18T04:20:38;8.20;;;7.40;;
13805;SDS011;6974;53.606;9.872;2023-09-18T04:23:18;8.67;;;7.97;;
13805;SDS011;6974;53.606;9.872;2023-09-18T04:25:50;9.47;;;7.57;;
13805;SDS011;6974;53.606;9.872;2023-09-18T04:28:18;8.80;;;7.97;;
13805;SDS011;6974;53.606;9.872;2023-09-18T04:30:47;9.37;;;8.50;;
13805;SDS011;6974;53.606;9.872;2023-09-18T04:33:14;10.93;;;8.37;;
13805;SDS011;6974;53.606;9.872;2023-09-18T04:35:44;8.83;;;7.97;;
13805;SDS011;6974;53.606;9.872;2023-09-18T04:38:11;9.40;;;8.23;;
13805;SDS011;6974;53.606;9.872;2023-09-18T04:40:39;9.30;;;7.50;;
13805;SDS011;6974;53.606;9.872;2023-09-18T04:43:06;8.90;;;8.10;;
13805;SDS011;6974;53.606;9.872;2023-09-18T04:45:33;9.40;;;8.13;;
13805;SDS011;6974;53.606;9.872;2023-09-18T04:48:02;11.03;;;8.83;;
13805;SDS011;6974;53.606;9.872;2023-09-18T04:50:30;12.40;;;8.33;;
13805;SDS011;6974;53.606;9.872;2023-09-18T04:52:59;9.77;;;8.87;;
13805;SDS011;6974;53.606;9.872;2023-09-18T04:55:29;8.87;;;8.03;;
13805;SDS011;6974;53.606;9.872;2023-09-18T04:57:56;10.13;;;8.37;;
13805;SDS011;6974;53.606;9.872;2023-09-18T05:00:23;9.07;;;8.13;;
13805;SDS011;6974;53.606;9.872;2023-09-18T05:02:51;11.17;;;8.67;;
13805;SDS011;6974;53.606;9.872;2023-09-18T05:05:20;9.10;;;8.30;;
13805;SDS011;6974;53.606;9.872;2023-09-18T05:07:47;8.50;;;7.60;;
13805;SDS011;6974;53.606;9.872;2023-09-18T05:10:14;9.00;;;8.10;;
13805;SDS011;6974;53.606;9.872;2023-09-18T05:12:41;9.43;;;8.27;;
13805;SDS011;6974;53.606;9.872;2023-09-18T05:15:08;9.00;;;8.10;;
13805;SDS011;6974;53.606;9.872;2023-09-18T05:17:41;9.03;;;8.13;;
13805;SDS011;6974;53.606;9.872;2023-09-18T05:20:09;8.47;;;7.60;;
13805;SDS011;6974;53.606;9.872;2023-09-18T05:22:40;9.47;;;8.03;;
13805;SDS011;6974;53.606;9.872;2023-09-18T05:25:08;8.53;;;7.73;;
13805;SDS011;6974;53.606;9.872;2023-09-18T05:27:36;8.20;;;7.40;;
13805;SDS011;6974;53.606;9.872;2023-09-18T05:30:09;8.63;;;7.70;;
13805;SDS011;6974;53.606;9.872;2023-09-18T05:32:38;8.07;;;7.27;;
13805;SDS011;6974;53.606;9.872;2023-09-18T05:35:06;8.47;;;7.77;;
13805;SDS011;6974;53.606;9.872;2023-09-18T05:37:35;8.53;;;7.73;;
13805;SDS011;6974;53.606;9.872;2023-09-18T05:40:05;8.50;;;7.80;;
13805;SDS011;6974;53.606;9.872;2023-09-18T05:42:35;7.97;;;7.00;;
13805;SDS011;6974;53.606;9.872;2023-09-18T05:45:02;8.97;;;8.17;;
13805;SDS011;6974;53.606;9.872;2023-09-18T05:47:30;8.70;;;8.00;;
13805;SDS011;6974;53.606;9.872;2023-09-18T05:49:58;8.63;;;7.67;;
13805;SDS011;6974;53.606;9.872;2023-09-18T05:52:25;9.93;;;7.53;;
13805;SDS011;6974;53.606;9.872;2023-09-18T05:54:52;8.83;;;7.93;;
13805;SDS011;6974;53.606;9.872;2023-09-18T06:00:45;10.13;;;7.80;;
13805;SDS011;6974;53.606;9.872;2023-09-18T06:03:12;9.70;;;7.70;;
13805;SDS011;6974;53.606;9.872;2023-09-18T06:05:41;9.10;;;8.40;;
13805;SDS011;6974;53.606;9.872;2023-09-18T06:08:08;10.20;;;9.03;;
13805;SDS011;6974;53.606;9.872;2023-09-18T06:10:35;8.77;;;8.00;;
13805;SDS011;6974;53.606;9.872;2023-09-18T06:13:02;8.97;;;8.17;;
13805;SDS011;6974;53.606;9.872;2023-09-18T06:15:31;8.97;;;8.07;;
13805;SDS011;6974;53.606;9.872;2023-09-18T06:18:00;10.47;;;8.20;;
13805;SDS011;6974;53.606;9.872;2023-09-18T06:20:28;8.77;;;7.90;;
13805;SDS011;6974;53.606;9.872;2023-09-18T06:22:56;8.73;;;7.63;;
13805;SDS011;6974;53.606;9.872;2023-09-18T06:25:23;8.70;;;7.90;;
13805;SDS011;6974;53.606;9.872;2023-09-18T06:27:50;11.13;;;8.23;;
13805;SDS011;6974;53.606;9.872;2023-09-18T06:30:17;9.83;;;8.10;;
13805;SDS011;6974;53.606;9.872;2023-09-18T06:32:44;8.50;;;7.80;;
13805;SDS011;6974;53.606;9.872;2023-09-18T06:35:12;10.53;;;8.03;;
13805;SDS011;6974;53.606;9.872;2023-09-18T06:37:41;9.53;;;8.43;;
13805;SDS011;6974;53.606;9.872;2023-09-18T06:40:08;9.63;;;8.53;;
13805;SDS011;6974;53.606;9.872;2023-09-18T06:42:36;9.50;;;8.50;;
13805;SDS011;6974;53.606;9.872;2023-09-18T06:45:03;12.33;;;8.03;;
13805;SDS011;6974;53.606;9.872;2023-09-18T06:47:33;8.37;;;7.30;;
13805;SDS011;6974;53.606;9.872;2023-09-18T06:50:00;8.57;;;7.73;;
13805;SDS011;6974;53.606;9.872;2023-09-18T06:52:30;9.13;;;8.07;;
13805;SDS011;6974;53.606;9.872;2023-09-18T06:54:57;8.53;;;7.83;;
13805;SDS011;6974;53.606;9.872;2023-09-18T06:57:24;8.93;;;8.13;;
13805;SDS011;6974;53.606;9.872;2023-09-18T06:59:54;8.70;;;7.80;;
13805;SDS011;6974;53.606;9.872;2023-09-18T07:02:21;8.00;;;7.30;;
13805;SDS011;6974;53.606;9.872;2023-09-18T07:04:48;9.23;;;8.27;;
13805;SDS011;6974;53.606;9.872;2023-09-18T07:07:16;8.67;;;7.57;;
13805;SDS011;6974;53.606;9.872;2023-09-18T07:09:51;8.73;;;7.80;;
13805;SDS011;6974;53.606;9.872;2023-09-18T07:12:18;8.37;;;7.60;;
13805;SDS011;6974;53.606;9.872;2023-09-18T07:14:46;8.47;;;7.77;;
13805;SDS011;6974;53.606;9.872;2023-09-18T07:17:19;8.73;;;7.60;;
13805;SDS011;6974;53.606;9.872;2023-09-18T07:19:46;8.90;;;7.27;;
13805;SDS011;6974;53.606;9.872;2023-09-18T07:22:13;7.97;;;7.03;;
13805;SDS011;6974;53.606;9.872;2023-09-18T07:24:41;7.43;;;6.83;;
13805;SDS011;6974;53.606;9.872;2023-09-18T07:27:11;8.10;;;7.30;;
13805;SDS011;6974;53.606;9.872;2023-09-18T07:29:38;8.50;;;7.67;;
13805;SDS011;6974;53.606;9.872;2023-09-18T07:32:05;7.43;;;6.80;;
13805;SDS011;6974;53.606;9.872;2023-09-18T07:34:32;7.87;;;7.07;;
13805;SDS011;6974;53.606;9.872;2023-09-18T07:37:00;7.43;;;6.83;;
13805;SDS011;6974;53.606;9.872;2023-09-18T07:39:27;10.17;;;7.60;;
13805;SDS011;6974;53.606;9.872;2023-09-18T07:41:54;7.70;;;6.90;;
13805;SDS011;6974;53.606;9.872;2023-09-18T07:44:23;7.83;;;7.10;;
13805;SDS011;6974;53.606;9.872;2023-09-18T07:46:50;9.30;;;7.77;;
13805;SDS011;6974;53.606;9.872;2023-09-18T07:49:17;7.60;;;6.93;;
13805;SDS011;6974;53.606;9.872;2023-09-18T07:51:44;13.87;;;9.27;;
13805;SDS011;6974;53.606;9.872;2023-09-18T07:54:13;14.10;;;9.30;;
13805;SDS011;6974;53.606;9.872;2023-09-18T07:56:41;8.37;;;7.57;;
13805;SDS011;6974;53.606;9.872;2023-09-18T07:59:08;8.37;;;7.57;;
13805;SDS011;6974;53.606;9.872;2023-09-18T08:01:38;11.87;;;9.97;;
13805;SDS011;6974;53.606;9.872;2023-09-18T08:04:05;8.37;;;7.17;;
13805;SDS011;6974;53.606;9.872;2023-09-18T08:06:32;10.70;;;7.70;;
13805;SDS011;6974;53.606;9.872;2023-09-18T08:08:59;10.57;;;7.53;;
13805;SDS011;6974;53.606;9.872;2023-09-18T08:11:27;7.60;;;6.67;;
13805;SDS011;6974;53.606;9.872;2023-09-18T08:13:54;6.83;;;6.27;;
13805;SDS011;6974;53.606;9.872;2023-09-18T08:16:21;7.70;;;6.77;;
13805;SDS011;6974;53.606;9.872;2023-09-18T08:18:50;7.57;;;6.87;;
13805;SDS011;6974;53.606;9.872;2023-09-18T08:21:17;7.23;;;6.57;;
13805;SDS011;6974;53.606;9.872;2023-09-18T08:23:45;7.07;;;6.37;;
13805;SDS011;6974;53.606;9.872;2023-09-18T08:26:12;7.50;;;6.73;;
13805;SDS011;6974;53.606;9.872;2023-09-18T08:28:39;7.77;;;6.83;;
13805;SDS011;6974;53.606;9.872;2023-09-18T08:31:08;7.47;;;6.87;;
13805;SDS011;6974;53.606;9.872;2023-09-18T08:33:35;7.43;;;6.73;;
13805;SDS011;6974;53.606;9.872;2023-09-18T08:38:39;7.17;;;6.60;;
13805;SDS011;6974;53.606;9.872;2023-09-18T08:41:08;7.93;;;6.50;;
13805;SDS011;6974;53.606;9.872;2023-09-18T08:43:37;7.60;;;6.90;;
13805;SDS011;6974;53.606;9.872;2023-09-18T08:46:08;10.53;;;7.20;;
13805;SDS011;6974;53.606;9.872;2023-09-18T08:48:35;7.57;;;6.87;;
13805;SDS011;6974;53.606;9.872;2023-09-18T08:51:05;7.87;;;7.07;;
13805;SDS011;6974;53.606;9.872;2023-09-18T08:53:33;7.27;;;6.57;;
13805;SDS011;6974;53.606;9.872;2023-09-18T08:56:04;7.83;;;7.13;;
13805;SDS011;6974;53.606;9.872;2023-09-18T08:58:32;7.30;;;6.60;;
13805;SDS011;6974;53.606;9.872;2023-09-18T09:01:02;7.80;;;7.20;;
13805;SDS011;6974;53.606;9.872;2023-09-18T09:03:31;7.03;;;6.43;;
13805;SDS011;6974;53.606;9.872;2023-09-18T09:05:59;7.70;;;7.03;;
13805;SDS011;6974;53.606;9.872;2023-09-18T09:08:27;7.57;;;6.87;;
13805;SDS011;6974;53.606;9.872;2023-09-18T09:10:54;7.60;;;6.93;;
13805;SDS011;6974;53.606;9.872;2023-09-18T09:13:24;7.50;;;6.80;;
13805;SDS011;6974;53.606;9.872;2023-09-18T09:15:52;7.50;;;6.83;;
13805;SDS011;6974;53.606;9.872;2023-09-18T09:18:21;7.37;;;6.70;;
13805;SDS011;6974;53.606;9.872;2023-09-18T09:20:55;7.50;;;6.80;;
13805;SDS011;6974;53.606;9.872;2023-09-18T09:23:24;7.53;;;6.73;;
13805;SDS011;6974;53.606;9.872;2023-09-18T09:25:52;7.77;;;6.93;;
13805;SDS011;6974;53.606;9.872;2023-09-18T09:28:30;7.97;;;7.10;;
13805;SDS011;6974;53.606;9.872;2023-09-18T09:31:01;8.07;;;7.27;;
13805;SDS011;6974;53.606;9.872;2023-09-18T09:33:29;8.10;;;7.13;;
13805;SDS011;6974;53.606;9.872;2023-09-18T09:35:56;8.57;;;7.00;;
13805;SDS011;6974;53.606;9.872;2023-09-18T09:38:29;7.07;;;6.37;;
13805;SDS011;6974;53.606;9.872;2023-09-18T09:40:59;6.67;;;6.03;;
13805;SDS011;6974;53.606;9.872;2023-09-18T09:43:27;6.90;;;6.20;;
13805;SDS011;6974;53.606;9.872;2023-09-18T09:45:58;6.97;;;6.30;;
13805;SDS011;6974;53.606;9.872;2023-09-18T09:48:30;6.20;;;5.60;;
13805;SDS011;6974;53.606;9.872;2023-09-18T09:50:59;7.87;;;6.23;;
13805;SDS011;6974;53.606;9.872;2023-09-18T09:56:12;6.33;;;5.70;;
13805;SDS011;6974;53.606;9.872;2023-09-18T09:58:59;6.37;;;5.53;;
13805;SDS011;6974;53.606;9.872;2023-09-18T10:01:30;6.23;;;5.40;;
13805;SDS011;6974;53.606;9.872;2023-09-18T10:03:58;5.73;;;5.23;;
13805;SDS011;6974;53.606;9.872;2023-09-18T10:06:26;6.90;;;5.70;;
13805;SDS011;6974;53.606;9.872;2023-09-18T10:08:56;6.43;;;5.73;;
13805;SDS011;6974;53.606;9.872;2023-09-18T10:11:24;7.20;;;5.70;;
13805;SDS011;6974;53.606;9.872;2023-09-18T10:13:55;6.13;;;5.43;;
13805;SDS011;6974;53.606;9.872;2023-09-18T10:16:26;7.83;;;5.83;;
13805;SDS011;6974;53.606;9.872;2023-09-18T10:19:01;6.27;;;5.73;;
13805;SDS011;6974;53.606;9.872;2023-09-18T10:21:37;6.10;;;5.13;;
13805;SDS011;6974;53.606;9.872;2023-09-18T10:24:10;5.37;;;4.63;;
13805;SDS011;6974;53.606;9.872;2023-09-18T10:26:44;6.40;;;5.43;;
13805;SDS011;6974;53.606;9.872;2023-09-18T10:29:17;8.73;;;4.80;;
13805;SDS011;6974;53.606;9.872;2023-09-18T10:31:48;7.50;;;5.20;;
13805;SDS011;6974;53.606;9.872;2023-09-18T10:34:17;7.90;;;5.43;;
13805;SDS011;6974;53.606;9.872;2023-09-18T10:36:45;7.37;;;6.13;;
13805;SDS011;6974;53.606;9.872;2023-09-18T10:39:15;6.43;;;5.77;;
13805;SDS011;6974;53.606;9.872;2023-09-18T10:41:45;6.53;;;5.23;;
13805;SDS011;6974;53.606;9.872;2023-09-18T10:44:13;7.80;;;5.20;;
13805;SDS011;6974;53.606;9.872;2023-09-18T10:46:41;7.37;;;5.23;;
13805;SDS011;6974;53.606;9.872;2023-09-18T10:49:21;6.43;;;5.30;;
13805;SDS011;6974;53.606;9.872;2023-09-18T10:51:48;8.03;;;5.67;;
13805;SDS011;6974;53.606;9.872;2023-09-18T10:54:20;7.80;;;6.00;;
13805;SDS011;6974;53.606;9.872;2023-09-18T10:56:48;7.27;;;5.53;;
13805;SDS011;6974;53.606;9.872;2023-09-18T10:59:16;6.70;;;5.27;;
13805;SDS011;6974;53.606;9.872;2023-09-18T11:01:44;5.07;;;4.57;;
13805;SDS011;6974;53.606;9.872;2023-09-18T11:04:17;6.97;;;5.27;;
13805;SDS011;6974;53.606;9.872;2023-09-18T11:09:45;5.27;;;4.70;;
13805;SDS011;6974;53.606;9.872;2023-09-18T11:12:14;7.03;;;4.77;;
13805;SDS011;6974;53.606;9.872;2023-09-18T11:14:44;6.67;;;5.00;;
13805;SDS011;6974;53.606;9.872;2023-09-18T11:17:33;6.63;;;4.87;;
13805;SDS011;6974;53.606;9.872;2023-09-18T11:20:03;10.13;;;5.13;;
13805;SDS011;6974;53.606;9.872;2023-09-18T11:22:34;8.43;;;5.37;;
13805;SDS011;6974;53.606;9.872;2023-09-18T11:28:02;6.37;;;4.87;;
13805;SDS011;6974;53.606;9.872;2023-09-18T11:30:32;7.93;;;4.90;;
13805;SDS011;6974;53.606;9.872;2023-09-18T11:33:01;5.00;;;4.50;;
13805;SDS011;6974;53.606;9.872;2023-09-18T11:35:31;5.47;;;4.30;;
13805;SDS011;6974;53.606;9.872;2023-09-18T11:38:06;9.60;;;7.23;;
13805;SDS011;6974;53.606;9.872;2023-09-18T11:40:34;7.10;;;4.67;;
13805;SDS011;6974;53.606;9.872;2023-09-18T11:43:18;8.47;;;4.80;;
13805;SDS011;6974;53.606;9.872;2023-09-18T11:45:50;8.07;;;4.63;;
13805;SDS011;6974;53.606;9.872;2023-09-18T11:48:19;6.50;;;5.03;;
13805;SDS011;6974;53.606;9.872;2023-09-18T11:50:52;10.13;;;4.77;;
13805;SDS011;6974;53.606;9.872;2023-09-18T11:53:20;8.37;;;4.77;;
13805;SDS011;6974;53.606;9.872;2023-09-18T11:55:47;7.13;;;4.50;;
13805;SDS011;6974;53.606;9.872;2023-09-18T11:58:17;6.13;;;4.30;;
13805;SDS011;6974;53.606;9.872;2023-09-18T12:00:48;6.10;;;5.50;;
13805;SDS011;6974;53.606;9.872;2023-09-18T12:03:16;6.03;;;4.43;;
13805;SDS011;6974;53.606;9.872;2023-09-18T12:05:55;7.47;;;4.87;;
13805;SDS011;6974;53.606;9.872;2023-09-18T12:08:25;7.10;;;4.97;;
13805;SDS011;6974;53.606;9.872;2023-09-18T12:10:53;10.33;;;4.67;;
13805;SDS011;6974;53.606;9.872;2023-09-18T12:13:20;8.97;;;4.87;;
13805;SDS011;6974;53.606;9.872;2023-09-18T12:15:48;9.03;;;4.53;;
13805;SDS011;6974;53.606;9.872;2023-09-18T12:18:16;6.90;;;4.80;;
13805;SDS011;6974;53.606;9.872;2023-09-18T12:20:47;5.93;;;4.20;;
13805;SDS011;6974;53.606;9.872;2023-09-18T12:23:16;6.27;;;4.13;;
13805;SDS011;6974;53.606;9.872;2023-09-18T12:25:45;6.83;;;4.30;;
13805;SDS011;6974;53.606;9.872;2023-09-18T12:28:14;7.00;;;4.33;;
13805;SDS011;6974;53.606;9.872;2023-09-18T12:30:41;5.77;;;4.23;;
13805;SDS011;6974;53.606;9.872;2023-09-18T12:33:11;5.63;;;4.20;;
13805;SDS011;6974;53.606;9.872;2023-09-18T12:35:40;7.27;;;4.47;;
13805;SDS011;6974;53.606;9.872;2023-09-18T12:38:14;6.03;;;4.00;;
13805;SDS011;6974;53.606;9.872;2023-09-18T12:40:48;9.00;;;4.40;;
13805;SDS011;6974;53.606;9.872;2023-09-18T12:43:15;6.90;;;4.10;;
13805;SDS011;6974;53.606;9.872;2023-09-18T12:45:43;8.07;;;4.37;;
13805;SDS011;6974;53.606;9.872;2023-09-18T12:48:12;9.23;;;4.40;;
13805;SDS011;6974;53.606;9.872;2023-09-18T12:50:40;7.00;;;3.90;;
13805;SDS011;6974;53.606;9.872;2023-09-18T12:53:08;6.30;;;3.90;;
13805;SDS011;6974;53.606;9.872;2023-09-18T12:55:37;6.33;;;3.80;;
13805;SDS011;6974;53.606;9.872;2023-09-18T12:58:05;7.60;;;4.30;;
13805;SDS011;6974;53.606;9.872;2023-09-18T13:00:34;5.33;;;3.90;;
13805;SDS011;6974;53.606;9.872;2023-09-18T13:03:03;8.47;;;4.37;;
13805;SDS011;6974;53.606;9.872;2023-09-18T13:05:30;8.80;;;4.00;;
13805;SDS011;6974;53.606;9.872;2023-09-18T13:08:03;7.43;;;4.20;;
13805;SDS011;6974;53.606;9.872;2023-09-18T13:10:42;4.90;;;3.77;;
13805;SDS011;6974;53.606;9.872;2023-09-18T13:13:15;8.63;;;3.77;;
13805;SDS011;6974;53.606;9.872;2023-09-18T13:15:46;7.23;;;4.07;;
13805;SDS011;6974;53.606;9.872;2023-09-18T13:18:15;6.63;;;3.60;;
13805;SDS011;6974;53.606;9.872;2023-09-18T13:20:44;4.67;;;3.30;;
13805;SDS011;6974;53.606;9.872;2023-09-18T13:23:11;7.53;;;4.23;;
13805;SDS011;6974;53.606;9.872;2023-09-18T13:25:39;6.07;;;3.73;;
13805;SDS011;6974;53.606;9.872;2023-09-18T13:28:11;6.60;;;3.30;;
13805;SDS011;6974;53.606;9.872;2023-09-18T13:30:39;7.23;;;3.60;;
13805;SDS011;6974;53.606;9.872;2023-09-18T13:33:08;5.20;;;3.53;;
13805;SDS011;6974;53.606;9.872;2023-09-18T13:35:37;5.70;;;3.57;;
13805;SDS011;6974;53.606;9.872;2023-09-18T13:38:05;8.57;;;3.47;;
13805;SDS011;6974;53.606;9.872;2023-09-18T13:40:34;5.60;;;3.70;;
13805;SDS011;6974;53.606;9.872;2023-09-18T13:43:04;8.27;;;4.40;;
13805;SDS011;6974;53.606;9.872;2023-09-18T13:45:32;8.90;;;3.93;;
13805;SDS011;6974;53.606;9.872;2023-09-18T13:48:00;7.83;;;4.50;;
13805;SDS011;6974;53.606;9.872;2023-09-18T13:50:27;6.73;;;4.30;;
13805;SDS011;6974;53.606;9.872;2023-09-18T13:52:55;6.20;;;3.57;;
13805;SDS011;6974;53.606;9.872;2023-09-18T13:55:22;7.17;;;4.10;;
13805;SDS011;6974;53.606;9.872;2023-09-18T13:57:49;10.00;;;4.10;;
13805;SDS011;6974;53.606;9.872;2023-09-18T14:00:18;5.33;;;3.53;;
13805;SDS011;6974;53.606;9.872;2023-09-18T14:02:45;8.93;;;4.17;;
13805;SDS011;6974;53.606;9.872;2023-09-18T14:05:13;7.77;;;4.40;;
13805;SDS011;6974;53.606;9.872;2023-09-18T14:07:40;6.83;;;3.63;;
13805;SDS011;6974;53.606;9.872;2023-09-18T14:10:08;5.47;;;3.30;;
13805;SDS011;6974;53.606;9.872;2023-09-18T14:12:36;6.53;;;3.57;;
13805;SDS011;6974;53.606;9.872;2023-09-18T14:15:04;6.40;;;3.57;;
13805;SDS011;6974;53.606;9.872;2023-09-18T14:17:33;6.23;;;3.60;;
13805;SDS011;6974;53.606;9.872;2023-09-18T14:20:00;5.83;;;3.90;;
13805;SDS011;6974;53.606;9.872;2023-09-18T14:22:31;5.60;;;4.03;;
13805;SDS011;6974;53.606;9.872;2023-09-18T14:24:59;8.07;;;3.70;;
13805;SDS011;6974;53.606;9.872;2023-09-18T14:27:29;6.80;;;3.97;;
13805;SDS011;6974;53.606;9.872;2023-09-18T14:29:56;7.17;;;3.43;;
13805;SDS011;6974;53.606;9.872;2023-09-18T14:32:23;7.30;;;4.20;;
13805;SDS011;6974;53.606;9.872;2023-09-18T14:34:52;5.97;;;3.80;;
13805;SDS011;6974;53.606;9.872;2023-09-18T14:37:19;5.17;;;3.60;;
13805;SDS011;6974;53.606;9.872;2023-09-18T14:39:46;11.43;;;3.70;;
13805;SDS011;6974;53.606;9.872;2023-09-18T14:42:13;4.23;;;3.37;;
13805;SDS011;6974;53.606;9.872;2023-09-18T14:44:40;5.37;;;3.40;;
13805;SDS011;6974;53.606;9.872;2023-09-18T14:47:09;5.87;;;3.60;;
13805;SDS011;6974;53.606;9.872;2023-09-18T14:49:37;3.97;;;3.40;;
13805;SDS011;6974;53.606;9.872;2023-09-18T14:52:05;5.93;;;4.13;;
13805;SDS011;6974;53.606;9.872;2023-09-18T14:54:33;5.33;;;3.37;;
13805;SDS011;6974;53.606;9.872;2023-09-18T14:56:59;5.47;;;3.40;;
13805;SDS011;6974;53.606;9.872;2023-09-18T14:59:28;4.23;;;3.50;;
13805;SDS011;6974;53.606;9.872;2023-09-18T15:01:55;3.90;;;3.47;;
13805;SDS011;6974;53.606;9.872;2023-09-18T15:04:22;4.67;;;3.60;;
13805;SDS011;6974;53.606;9.872;2023-09-18T15:06:49;4.07;;;3.40;;
13805;SDS011;6974;53.606;9.872;2023-09-18T15:09:17;7.07;;;3.93;;
13805;SDS011;6974;53.606;9.872;2023-09-18T15:11:44;8.90;;;3.57;;
13805;SDS011;6974;53.606;9.872;2023-09-18T15:14:11;4.63;;;3.50;;
13805;SDS011;6974;53.606;9.872;2023-09-18T15:16:38;5.00;;;3.87;;
13805;SDS011;6974;53.606;9.872;2023-09-18T15:19:04;6.73;;;3.47;;
13805;SDS011;6974;53.606;9.872;2023-09-18T15:21:33;5.10;;;3.57;;
13805;SDS011;6974;53.606;9.872;2023-09-18T15:24:01;4.13;;;3.47;;